Time;durP1;ratioP1;P1;durP2;ratioP2;P2;SDS_P1;SDS_P2;PMS_P1;PMS_P2;Temp;Humidity;BMP_temperature;BMP_pressure;BME280_temperature;BME280_humidity;BME280_pressure;Samples;Min_cycle;Max_cycle;Signal;HPM_P1;HPM_P2
2022/05/26 00:01:53;;;;;;;25.15;7.28;;;;;;;;;;4994469;28;93174;-68
2022/05/26 00:04:19;;;;;;;23.55;8.02;;;;;;;;;;5011982;28;94209;-68
2022/05/26 00:06:46;;;;;;;25.95;7.07;;;;;;;;;;4994862;28;92582;-68
2022/05/26 00:09:12;;;;;;;22.85;6.97;;;;;;;;;;4994578;28;94103;-68
2022/05/26 00:11:38;;;;;;;25.58;7.72;;;;;;;;;;5014502;28;92463;-68
2022/05/26 00:14:07;;;;;;;23.25;7.25;;;;;;;;;;5017523;28;91643;-68
2022/05/26 00:16:38;;;;;;;30.30;7.32;;;;;;;;;;5015828;28;93573;-68
2022/05/26 00:19:04;;;;;;;;;;;;;;;;;;5010094;28;93374;-69
2022/05/26 00:21:30;;;;;;;17.08;7.07;;;;;;;;;;5011200;28;123398;-69
2022/05/26 00:23:57;;;;;;;22.42;7.00;;;;;;;;;;5016531;28;93361;-69
2022/05/26 00:26:24;;;;;;;22.95;7.72;;;;;;;;;;5014547;28;92769;-69
2022/05/26 00:28:50;;;;;;;21.45;6.63;;;;;;;;;;4991669;28;93238;-69
2022/05/26 00:31:16;;;;;;;29.13;8.00;;;;;;;;;;5016135;28;93263;-69
2022/05/26 00:33:43;;;;;;;26.85;7.53;;;;;;;;;;5015336;28;92519;-68
2022/05/26 00:36:11;;;;;;;19.67;7.63;;;;;;;;;;5014476;28;93664;-68
2022/05/26 00:38:38;;;;;;;28.17;8.48;;;;;;;;;;5013273;28;92899;-68
2022/05/26 00:41:09;;;;;;;22.10;7.90;;;;;;;;;;5000886;28;93040;-69
2022/05/26 00:43:40;;;;;;;27.70;8.00;;;;;;;;;;5026107;28;93302;-69
2022/05/26 00:46:12;;;;;;;24.13;8.30;;;;;;;;;;5015272;28;94759;-69
2022/05/26 00:48:44;;;;;;;29.75;8.75;;;;;;;;;;5015933;28;95662;-69
2022/05/26 00:51:11;;;;;;;28.73;8.65;;;;;;;;;;5014520;28;93347;-68
2022/05/26 00:53:40;;;;;;;36.55;9.98;;;;;;;;;;4998203;28;92529;-69
2022/05/26 00:56:15;;;;;;;26.75;9.02;;;;;;;;;;5014937;28;95390;-68
2022/05/26 00:58:43;;;;;;;28.35;9.07;;;;;;;;;;5012218;28;93615;-68
2022/05/26 01:01:10;;;;;;;30.42;9.45;;;;;;;;;;5002299;28;92455;-69
2022/05/26 01:03:39;;;;;;;29.38;9.23;;;;;;;;;;5012749;28;92774;-68
2022/05/26 01:06:28;;;;;;;30.02;8.90;;;;;;;;;;5014859;28;92487;-69
2022/05/26 01:08:57;;;;;;;32.35;9.40;;;;;;;;;;5012189;28;92951;-68
2022/05/26 01:11:25;;;;;;;30.80;9.00;;;;;;;;;;4994767;28;95697;-69
2022/05/26 01:13:53;;;;;;;23.48;9.10;;;;;;;;;;5016088;28;92615;-68
2022/05/26 01:16:29;;;;;;;28.80;9.15;;;;;;;;;;5015495;28;93202;-69
2022/05/26 01:18:56;;;;;;;30.50;10.45;;;;;;;;;;5015771;28;94637;-69
2022/05/26 01:21:29;;;;;;;29.35;10.13;;;;;;;;;;5013940;28;92502;-68
2022/05/26 01:24:04;;;;;;;31.65;10.02;;;;;;;;;;5017712;28;93474;-68
2022/05/26 01:26:40;;;;;;;26.75;9.35;;;;;;;;;;5008534;28;94177;-68
2022/05/26 01:29:06;;;;;;;30.65;10.68;;;;;;;;;;5011606;28;94245;-68
2022/05/26 01:31:51;;;;;;;31.90;10.00;;;;;;;;;;5013221;28;93469;-68
2022/05/26 01:34:40;;;;;;;36.65;10.38;;;;;;;;;;4995120;28;92469;-68
2022/05/26 01:37:17;;;;;;;31.33;9.57;;;;;;;;;;5007163;28;95083;-69
2022/05/26 01:39:46;;;;;;;39.90;10.60;;;;;;;;;;5013561;28;94515;-70
2022/05/26 01:42:21;;;;;;;28.77;10.32;;;;;;;;;;5012688;28;92568;-69
2022/05/26 01:44:48;;;;;;;35.65;10.00;;;;;;;;;;5013102;28;93034;-69
2022/05/26 01:47:20;;;;;;;31.80;10.40;;;;;;;;;;5017278;28;93393;-70
2022/05/26 01:49:49;;;;;;;26.40;9.65;;;;;;;;;;5012787;28;92910;-69
2022/05/26 01:52:17;;;;;;;31.63;10.73;;;;;;;;;;4980145;28;93308;-69
2022/05/26 01:54:59;;;;;;;40.72;11.57;;;;;;;;;;5014468;28;93160;-69
2022/05/26 01:57:30;;;;;;;38.55;10.80;;;;;;;;;;5014987;28;93406;-69
2022/05/26 02:00:00;;;;;;;39.65;10.93;;;;;;;;;;5013798;28;93314;-69
2022/05/26 02:02:35;;;;;;;37.88;10.07;;;;;;;;;;5012191;28;94951;-69
2022/05/26 02:05:05;;;;;;;49.00;10.38;;;;;;;;;;5013075;28;95622;-69
2022/05/26 02:07:31;;;;;;;34.55;9.70;;;;;;;;;;5014830;28;93799;-69
2022/05/26 02:10:00;;;;;;;38.13;10.27;;;;;;;;;;5007899;28;92437;-69
2022/05/26 02:12:29;;;;;;;44.45;10.60;;;;;;;;;;5007701;28;93709;-69
2022/05/26 02:14:58;;;;;;;34.88;9.25;;;;;;;;;;5013422;28;93108;-69
2022/05/26 02:17:32;;;;;;;36.10;9.30;;;;;;;;;;4978988;28;93254;-68
2022/05/26 02:19:59;;;;;;;35.10;9.07;;;;;;;;;;5016121;28;92499;-68
2022/05/26 02:22:28;;;;;;;35.50;8.95;;;;;;;;;;5014560;28;92463;-68
2022/05/26 02:25:16;;;;;;;35.88;9.13;;;;;;;;;;5015972;28;94694;-68
2022/05/26 02:27:42;;;;;;;34.13;8.82;;;;;;;;;;5007486;28;95896;-69
2022/05/26 02:30:09;;;;;;;33.15;8.82;;;;;;;;;;5005950;28;93507;-69
2022/05/26 02:32:37;;;;;;;36.63;9.10;;;;;;;;;;5000643;28;92994;-69
2022/05/26 02:35:23;;;;;;;31.50;7.88;;;;;;;;;;5008007;28;92493;-69
2022/05/26 02:37:52;;;;;;;37.85;9.57;;;;;;;;;;5002811;28;94535;-68
2022/05/26 02:40:18;;;;;;;42.40;9.25;;;;;;;;;;5008430;28;93224;-69
2022/05/26 02:43:10;;;;;;;36.65;8.52;;;;;;;;;;5016934;28;92472;-69
2022/05/26 02:45:43;;;;;;;37.70;9.32;;;;;;;;;;5007764;28;93123;-69
2022/05/26 02:48:18;;;;;;;38.65;8.55;;;;;;;;;;5014926;28;93459;-69
2022/05/26 02:51:10;;;;;;;36.58;9.23;;;;;;;;;;5011963;28;92500;-69
2022/05/26 02:53:55;;;;;;;35.72;9.30;;;;;;;;;;5009579;28;94820;-69
2022/05/26 02:56:32;;;;;;;41.60;9.65;;;;;;;;;;5016607;28;93276;-68
2022/05/26 02:59:11;;;;;;;32.70;9.20;;;;;;;;;;5013606;28;93236;-68
2022/05/26 03:01:42;;;;;;;34.00;8.20;;;;;;;;;;5015000;28;93609;-69
2022/05/26 03:04:12;;;;;;;40.35;9.63;;;;;;;;;;5013572;28;92748;-68
2022/05/26 03:06:42;;;;;;;37.70;8.25;;;;;;;;;;5014792;28;93420;-69
2022/05/26 03:09:09;;;;;;;34.03;8.37;;;;;;;;;;4994501;28;92915;-69
2022/05/26 03:12:05;;;;;;;36.05;8.38;;;;;;;;;;4997094;28;91732;-69
2022/05/26 03:14:31;;;;;;;33.17;7.72;;;;;;;;;;4993021;28;93100;-68
2022/05/26 03:16:57;;;;;;;43.90;9.02;;;;;;;;;;5017224;28;94353;-69
2022/05/26 03:19:23;;;;;;;40.58;8.93;;;;;;;;;;5006490;28;95305;-69
2022/05/26 03:21:50;;;;;;;42.95;8.70;;;;;;;;;;4996438;28;93474;-69
2022/05/26 03:24:16;;;;;;;38.83;9.25;;;;;;;;;;4989997;28;92428;-68
2022/05/26 03:26:43;;;;;;;41.20;9.27;;;;;;;;;;5006323;28;94269;-69
2022/05/26 03:29:09;;;;;;;40.90;9.82;;;;;;;;;;5013738;28;93317;-69
2022/05/26 03:31:35;;;;;;;38.42;8.05;;;;;;;;;;5014573;28;92530;-68
2022/05/26 03:42:18;;;;;;;36.20;8.70;;;;;;;;;;5011965;28;93336;-68
2022/05/26 03:44:44;;;;;;;33.13;8.10;;;;;;;;;;5007102;28;94915;-68
2022/05/26 03:47:11;;;;;;;26.20;7.20;;;;;;;;;;5015255;28;95846;-69
2022/05/26 03:49:37;;;;;;;36.78;8.68;;;;;;;;;;5018175;28;94558;-68
2022/05/26 03:52:03;;;;;;;41.80;8.02;;;;;;;;;;5018230;28;92360;-68
2022/05/26 03:54:30;;;;;;;35.30;8.88;;;;;;;;;;5017563;28;92946;-69
2022/05/26 03:56:57;;;;;;;34.05;7.72;;;;;;;;;;5014253;28;93678;-69
2022/05/26 03:59:23;;;;;;;36.05;9.10;;;;;;;;;;5014551;28;93883;-68
2022/05/26 04:01:50;;;;;;;33.25;8.05;;;;;;;;;;5003566;28;93190;-69
2022/05/26 04:04:17;;;;;;;40.58;8.52;;;;;;;;;;5016395;28;92560;-69
2022/05/26 04:06:43;;;;;;;35.08;7.28;;;;;;;;;;5018193;28;94301;-69
2022/05/26 04:09:10;;;;;;;37.88;7.75;;;;;;;;;;4997580;28;96843;-69
2022/05/26 04:11:36;;;;;;;34.40;7.07;;;;;;;;;;4995992;28;93440;-68
2022/05/26 04:14:02;;;;;;;25.70;6.68;;;;;;;;;;5016401;28;94203;-68
2022/05/26 04:16:29;;;;;;;37.60;8.60;;;;;;;;;;5015925;28;93785;-68
2022/05/26 04:18:55;;;;;;;33.53;8.50;;;;;;;;;;5017082;28;93270;-68
2022/05/26 04:21:21;;;;;;;28.98;7.00;;;;;;;;;;5000005;28;94301;-69
2022/05/26 04:23:47;;;;;;;39.70;7.75;;;;;;;;;;5016684;28;93711;-68
2022/05/26 04:26:14;;;;;;;40.53;7.28;;;;;;;;;;5011910;28;93019;-69
2022/05/26 04:28:40;;;;;;;38.90;7.95;;;;;;;;;;5010274;28;93832;-69
2022/05/26 04:31:06;;;;;;;32.45;6.85;;;;;;;;;;5008393;28;92778;-69
2022/05/26 04:33:33;;;;;;;29.85;7.10;;;;;;;;;;5007067;28;94809;-69
2022/05/26 04:36:02;;;;;;;29.42;6.53;;;;;;;;;;4996948;28;93076;-69
2022/05/26 04:38:28;;;;;;;30.20;6.53;;;;;;;;;;4996176;28;92511;-69
2022/05/26 04:41:02;;;;;;;34.53;7.05;;;;;;;;;;5017244;28;93278;-69
2022/05/26 04:43:28;;;;;;;41.17;7.72;;;;;;;;;;4998126;28;93776;-68
2022/05/26 04:45:55;;;;;;;41.05;7.28;;;;;;;;;;5006917;28;92855;-69
2022/05/26 04:48:21;;;;;;;36.78;7.35;;;;;;;;;;4994362;28;94863;-68
2022/05/26 04:50:51;;;;;;;26.85;6.30;;;;;;;;;;5005058;28;91852;-69
2022/05/26 04:53:18;;;;;;;33.47;7.78;;;;;;;;;;5016597;28;93255;-69
2022/05/26 04:55:45;;;;;;;31.58;7.45;;;;;;;;;;5014926;28;94220;-68
2022/05/26 04:58:11;;;;;;;33.75;8.07;;;;;;;;;;5013644;28;94803;-69
2022/05/26 05:00:37;;;;;;;32.83;7.03;;;;;;;;;;5016076;28;95522;-68
2022/05/26 05:03:04;;;;;;;32.97;6.47;;;;;;;;;;5015468;28;93478;-68
2022/05/26 05:05:30;;;;;;;36.47;6.93;;;;;;;;;;4996413;28;92663;-69
2022/05/26 05:07:56;;;;;;;31.60;6.18;;;;;;;;;;5000476;28;93135;-68
2022/05/26 05:10:22;;;;;;;23.08;5.45;;;;;;;;;;4996780;28;92528;-69
2022/05/26 05:12:49;;;;;;;19.88;5.80;;;;;;;;;;5012321;28;93626;-69
2022/05/26 05:15:21;;;;;;;27.02;5.78;;;;;;;;;;5015930;28;92786;-69
2022/05/26 05:17:48;;;;;;;31.50;5.93;;;;;;;;;;5011319;28;92576;-69
2022/05/26 05:20:14;;;;;;;35.05;5.97;;;;;;;;;;4993846;28;93005;-68
2022/05/26 05:22:43;;;;;;;27.15;5.28;;;;;;;;;;5013950;28;96888;-69
2022/05/26 05:25:16;;;;;;;31.95;5.93;;;;;;;;;;5015242;28;92505;-69
2022/05/26 05:27:45;;;;;;;24.05;5.45;;;;;;;;;;5018757;28;93330;-69
2022/05/26 05:30:17;;;;;;;27.80;5.35;;;;;;;;;;5016015;28;92547;-69
2022/05/26 05:32:45;;;;;;;21.48;5.43;;;;;;;;;;5014746;28;93926;-69
2022/05/26 05:35:14;;;;;;;26.50;4.93;;;;;;;;;;5015777;28;93241;-69
2022/05/26 05:37:40;;;;;;;23.35;4.07;;;;;;;;;;5012435;28;94196;-69
2022/05/26 05:40:07;;;;;;;24.83;4.90;;;;;;;;;;5014357;28;93228;-69
2022/05/26 05:42:34;;;;;;;16.50;3.58;;;;;;;;;;5015990;28;93215;-68
2022/05/26 05:45:01;;;;;;;18.25;3.65;;;;;;;;;;5026614;28;92523;-68
2022/05/26 05:47:27;;;;;;;17.27;3.33;;;;;;;;;;5015234;28;94767;-69
2022/05/26 05:49:53;;;;;;;24.30;3.42;;;;;;;;;;5018424;28;92562;-69
2022/05/26 05:52:21;;;;;;;17.00;3.65;;;;;;;;;;5003180;28;93990;-69
2022/05/26 05:54:47;;;;;;;23.92;3.97;;;;;;;;;;5015811;28;93126;-69
2022/05/26 05:57:13;;;;;;;17.10;3.47;;;;;;;;;;5007835;28;92399;-68
2022/05/26 05:59:40;;;;;;;19.00;3.75;;;;;;;;;;5002081;28;93224;-70
2022/05/26 06:02:07;;;;;;;21.27;3.30;;;;;;;;;;5013026;28;93481;-69
2022/05/26 06:04:53;;;;;;;16.40;3.33;;;;;;;;;;5005935;28;91733;-69
2022/05/26 06:07:20;;;;;;;16.30;3.22;;;;;;;;;;5014233;28;94368;-69
2022/05/26 06:09:47;;;;;;;16.42;3.08;;;;;;;;;;5012092;28;93763;-69
2022/05/26 06:12:14;;;;;;;17.33;2.90;;;;;;;;;;5012698;28;94804;-68
2022/05/26 06:14:42;;;;;;;20.15;3.83;;;;;;;;;;5014311;28;93555;-68
2022/05/26 06:17:09;;;;;;;23.60;3.72;;;;;;;;;;4984290;28;92450;-69
2022/05/26 06:19:36;;;;;;;9.50;2.50;;;;;;;;;;4996074;28;94138;-69
2022/05/26 06:22:30;;;;;;;17.17;2.92;;;;;;;;;;5001974;28;93481;-69
2022/05/26 06:24:56;;;;;;;14.00;3.08;;;;;;;;;;5011883;28;92811;-69
2022/05/26 06:30:10;;;;;;;15.70;2.90;;;;;;;;;;5000049;28;93058;-69
2022/05/26 06:38:13;;;;;;;14.95;2.58;;;;;;;;;;5013564;28;94896;-69
2022/05/26 06:40:39;;;;;;;13.57;3.30;;;;;;;;;;5011237;28;97544;-69
2022/05/26 06:43:05;;;;;;;13.38;3.35;;;;;;;;;;5017229;28;93625;-69
2022/05/26 06:45:31;;;;;;;9.68;2.53;;;;;;;;;;5025080;28;92992;-68
2022/05/26 06:47:58;;;;;;;11.35;2.28;;;;;;;;;;5012904;28;93120;-69
2022/05/26 06:50:24;;;;;;;13.02;2.08;;;;;;;;;;5014836;28;93650;-69
2022/05/26 06:52:51;;;;;;;17.67;3.45;;;;;;;;;;5014420;28;92605;-69
2022/05/26 06:55:17;;;;;;;9.23;2.15;;;;;;;;;;5013603;28;92866;-69
2022/05/26 06:57:43;;;;;;;20.05;3.55;;;;;;;;;;5000147;28;93461;-69
2022/05/26 07:00:10;;;;;;;9.07;2.47;;;;;;;;;;5013717;28;94059;-69
2022/05/26 07:02:38;;;;;;;9.35;2.33;;;;;;;;;;5012833;28;95912;-69
2022/05/26 07:05:04;;;;;;;15.20;2.50;;;;;;;;;;5014836;28;92381;-69
2022/05/26 07:07:32;;;;;;;9.77;2.35;;;;;;;;;;5014523;28;93630;-69
2022/05/26 07:09:59;;;;;;;13.32;2.60;;;;;;;;;;5015143;28;93185;-69
2022/05/26 07:12:32;;;;;;;13.23;2.88;;;;;;;;;;5013641;28;92522;-69
2022/05/26 07:14:59;;;;;;;10.57;2.38;;;;;;;;;;5009953;28;93856;-68
2022/05/26 07:17:26;;;;;;;10.88;2.22;;;;;;;;;;4994446;28;93619;-69
2022/05/26 07:19:52;;;;;;;11.85;1.95;;;;;;;;;;5005279;28;91724;-69
2022/05/26 07:22:19;;;;;;;15.20;2.42;;;;;;;;;;4995621;28;94577;-70
2022/05/26 07:24:48;;;;;;;10.48;2.28;;;;;;;;;;5014893;28;92711;-69
2022/05/26 07:27:15;;;;;;;11.73;2.10;;;;;;;;;;5012105;28;94772;-68
2022/05/26 07:29:41;;;;;;;14.00;2.30;;;;;;;;;;5007242;28;93222;-69
2022/05/26 07:32:07;;;;;;;12.70;2.50;;;;;;;;;;5008512;28;92460;-69
2022/05/26 07:34:34;;;;;;;11.60;2.03;;;;;;;;;;5013902;28;93713;-69
2022/05/26 07:42:31;;;;;;;7.85;2.10;;;;;;;;;;5013018;28;94054;-69
2022/05/26 07:44:58;;;;;;;11.38;2.10;;;;;;;;;;5014017;28;91771;-69
2022/05/26 07:47:26;;;;;;;11.20;2.10;;;;;;;;;;5013878;28;92445;-70
2022/05/26 07:49:53;;;;;;;7.43;1.73;;;;;;;;;;5014575;28;95063;-71
2022/05/26 07:52:20;;;;;;;6.30;1.60;;;;;;;;;;5011847;28;94787;-69
2022/05/26 07:54:47;;;;;;;8.90;2.00;;;;;;;;;;5014218;28;95281;-70
2022/05/26 07:57:23;;;;;;;11.50;2.20;;;;;;;;;;5012106;28;94120;-70
2022/05/26 07:59:50;;;;;;;9.93;2.42;;;;;;;;;;4996886;28;92464;-71
2022/05/26 08:02:17;;;;;;;15.35;2.47;;;;;;;;;;5017616;28;93128;-70
2022/05/26 08:04:44;;;;;;;11.57;2.40;;;;;;;;;;5013877;28;92504;-71
2022/05/26 08:07:11;;;;;;;8.52;1.92;;;;;;;;;;5013194;28;93751;-71
2022/05/26 08:09:40;;;;;;;13.52;2.10;;;;;;;;;;5012293;28;92612;-70
2022/05/26 08:12:08;;;;;;;9.83;1.93;;;;;;;;;;5007482;28;92526;-72
2022/05/26 08:14:34;;;;;;;9.82;2.22;;;;;;;;;;5011353;28;93834;-71
2022/05/26 08:17:01;;;;;;;14.98;2.00;;;;;;;;;;4993421;28;95797;-70
2022/05/26 08:19:27;;;;;;;8.95;1.92;;;;;;;;;;5014040;28;92498;-71
2022/05/26 08:21:54;;;;;;;5.65;1.20;;;;;;;;;;5011685;28;93333;-71
2022/05/26 08:24:20;;;;;;;7.50;1.88;;;;;;;;;;4999316;28;93550;-70
2022/05/26 08:26:47;;;;;;;5.60;1.83;;;;;;;;;;4995125;28;93456;-71
2022/05/26 08:29:13;;;;;;;9.38;2.30;;;;;;;;;;5013740;28;93307;-71
2022/05/26 08:31:39;;;;;;;7.93;1.80;;;;;;;;;;5013132;28;92357;-70
2022/05/26 08:34:06;;;;;;;11.27;2.00;;;;;;;;;;5017238;28;93109;-71
2022/05/26 08:36:33;;;;;;;9.45;2.33;;;;;;;;;;5015634;28;93913;-70
2022/05/26 08:38:59;;;;;;;10.25;2.30;;;;;;;;;;5016360;28;92510;-70
2022/05/26 08:41:28;;;;;;;7.53;2.00;;;;;;;;;;5014903;28;94748;-71
2022/05/26 08:43:54;;;;;;;7.50;2.03;;;;;;;;;;5028542;28;93372;-71
2022/05/26 08:46:20;;;;;;;15.13;2.45;;;;;;;;;;5028625;28;92457;-70
2022/05/26 08:49:06;;;;;;;18.75;2.45;;;;;;;;;;5016735;28;93914;-71
2022/05/26 08:51:32;;;;;;;12.50;2.08;;;;;;;;;;5013412;28;92495;-71
2022/05/26 08:53:59;;;;;;;9.63;2.58;;;;;;;;;;4997887;28;94065;-71
2022/05/26 08:56:26;;;;;;;9.98;2.65;;;;;;;;;;5015732;28;93380;-70
2022/05/26 08:58:57;;;;;;;8.02;2.58;;;;;;;;;;5017153;28;91741;-70
2022/05/26 09:01:27;;;;;;;14.07;2.80;;;;;;;;;;5012533;28;92579;-71
2022/05/26 09:03:54;;;;;;;11.10;3.30;;;;;;;;;;4996531;28;93858;-71
2022/05/26 09:06:21;;;;;;;8.95;2.20;;;;;;;;;;5014848;28;94816;-70
2022/05/26 09:14:26;;;;;;;9.55;2.63;;;;;;;;;;5015963;28;93134;-70
2022/05/26 09:16:56;;;;;;;9.00;2.33;;;;;;;;;;5016065;28;93407;-70
2022/05/26 09:19:23;;;;;;;13.18;2.60;;;;;;;;;;5012706;28;92597;-70
2022/05/26 09:21:50;;;;;;;7.38;2.30;;;;;;;;;;4980599;28;93124;-71
2022/05/26 09:24:33;;;;;;;6.95;2.08;;;;;;;;;;5005177;28;92668;-70
2022/05/26 09:27:05;;;;;;;10.07;2.42;;;;;;;;;;5015046;28;92629;-70
2022/05/26 09:29:37;;;;;;;9.27;2.38;;;;;;;;;;5019399;28;95527;-71
2022/05/26 09:32:04;;;;;;;12.70;2.50;;;;;;;;;;4995994;28;95888;-70
2022/05/26 09:35:01;;;;;;;9.10;2.55;;;;;;;;;;5014845;28;95355;-71
2022/05/26 09:37:38;;;;;;;8.77;2.97;;;;;;;;;;5016087;28;93537;-71
2022/05/26 09:40:12;;;;;;;7.50;2.55;;;;;;;;;;4998580;28;92455;-70
2022/05/26 09:42:40;;;;;;;8.10;2.17;;;;;;;;;;5017443;28;93006;-70
2022/05/26 09:45:13;;;;;;;8.25;2.25;;;;;;;;;;5021988;28;93241;-70
2022/05/26 09:47:48;;;;;;;8.68;2.25;;;;;;;;;;5015964;28;92508;-70
2022/05/26 09:50:35;;;;;;;10.88;2.78;;;;;;;;;;5006117;28;94867;-71
2022/05/26 09:53:03;;;;;;;7.03;1.65;;;;;;;;;;4999685;28;93631;-70
2022/05/26 09:55:40;;;;;;;15.80;2.13;;;;;;;;;;5014308;28;93388;-71
2022/05/26 09:58:15;;;;;;;7.65;1.90;;;;;;;;;;5013098;28;96032;-71
2022/05/26 10:00:46;;;;;;;7.00;1.90;;;;;;;;;;5016098;28;92458;-70
2022/05/26 10:03:12;;;;;;;7.75;1.90;;;;;;;;;;4998191;28;93607;-70
2022/05/26 10:05:43;;;;;;;12.27;1.80;;;;;;;;;;5008649;28;93237;-70
2022/05/26 10:08:18;;;;;;;8.63;2.17;;;;;;;;;;4995038;28;92690;-71
2022/05/26 10:10:44;;;;;;;4.78;2.00;;;;;;;;;;5015945;28;93196;-71
2022/05/26 10:13:37;;;;;;;7.85;1.70;;;;;;;;;;5014622;28;93295;-71
2022/05/26 10:16:09;;;;;;;6.30;1.67;;;;;;;;;;4995155;28;91807;-71
2022/05/26 10:18:44;;;;;;;25.95;3.78;;;;;;;;;;5011912;28;93306;-70
2022/05/26 10:21:10;;;;;;;8.70;1.92;;;;;;;;;;5014117;28;93050;-70
2022/05/26 10:23:41;;;;;;;6.40;1.85;;;;;;;;;;5011382;28;95515;-71
2022/05/26 10:26:23;;;;;;;10.68;2.38;;;;;;;;;;5014510;28;94063;-71
2022/05/26 10:28:55;;;;;;;9.80;1.77;;;;;;;;;;5010652;28;92481;-71
2022/05/26 10:31:39;;;;;;;5.85;1.67;;;;;;;;;;5003833;28;93137;-70
2022/05/26 10:34:14;;;;;;;10.90;2.33;;;;;;;;;;5014056;28;93627;-70
2022/05/26 10:36:55;;;;;;;8.82;2.47;;;;;;;;;;5013036;28;92616;-70
2022/05/26 10:39:25;;;;;;;15.98;2.00;;;;;;;;;;4999482;28;93316;-71
2022/05/26 10:41:54;;;;;;;10.35;1.70;;;;;;;;;;5014237;28;91790;-71
2022/05/26 10:44:27;;;;;;;8.18;2.05;;;;;;;;;;5030821;28;92415;-70
2022/05/26 10:47:02;;;;;;;8.27;2.25;;;;;;;;;;5016635;28;93960;-71
2022/05/26 10:49:36;;;;;;;10.85;2.33;;;;;;;;;;4994675;28;94935;-71
2022/05/26 10:52:14;;;;;;;7.15;2.00;;;;;;;;;;4991638;28;95860;-70
2022/05/26 10:55:00;;;;;;;10.23;2.10;;;;;;;;;;5012140;28;93497;-70
2022/05/26 10:57:46;;;;;;;6.20;1.70;;;;;;;;;;5013946;28;92609;-71
2022/05/26 11:00:16;;;;;;;11.35;1.95;;;;;;;;;;5012285;28;93198;-72
2022/05/26 11:03:06;;;;;;;11.82;2.28;;;;;;;;;;5000599;28;93682;-71
2022/05/26 11:05:39;;;;;;;15.50;2.40;;;;;;;;;;4985863;28;93471;-71
2022/05/26 11:08:21;;;;;;;10.13;2.45;;;;;;;;;;5014758;28;92840;-71
2022/05/26 11:10:49;;;;;;;11.73;1.90;;;;;;;;;;4988599;28;92382;-71
2022/05/26 11:13:44;;;;;;;10.82;2.03;;;;;;;;;;4989889;28;93474;-71
2022/05/26 11:19:23;;;;;;;15.20;2.03;;;;;;;;;;4972398;28;92560;-70
2022/05/26 11:21:50;;;;;;;11.73;2.30;;;;;;;;;;4972658;28;93164;-71
2022/05/26 11:24:16;;;;;;;11.98;2.22;;;;;;;;;;4971128;28;93512;-71
2022/05/26 11:27:01;;;;;;;10.60;1.83;;;;;;;;;;4959072;28;92566;-71
2022/05/26 11:29:31;;;;;;;8.43;1.60;;;;;;;;;;4972245;28;93265;-70
2022/05/26 11:37:39;;;;;;;8.75;1.70;;;;;;;;;;4971596;28;93654;-71
2022/05/26 11:40:08;;;;;;;14.32;2.65;;;;;;;;;;4972676;28;92522;-71
2022/05/26 11:42:46;;;;;;;10.95;2.47;;;;;;;;;;4937624;28;94883;-71
2022/05/26 11:45:13;;;;;;;12.68;2.60;;;;;;;;;;4955042;28;93761;-71
2022/05/26 11:47:58;;;;;;;8.77;2.28;;;;;;;;;;4975299;28;92470;-70
2022/05/26 11:51:00;;;;;;;8.82;1.90;;;;;;;;;;4972238;28;92546;-70
2022/05/26 11:53:34;;;;;;;12.85;2.17;;;;;;;;;;4978203;28;92580;-71
2022/05/26 11:56:04;;;;;;;8.05;2.10;;;;;;;;;;4996477;28;93278;-70
2022/05/26 11:58:38;;;;;;;8.65;1.75;;;;;;;;;;5010704;28;93866;-71
2022/05/26 12:01:13;;;;;;;4.72;1.48;;;;;;;;;;5008962;28;93304;-70
2022/05/26 12:03:50;;;;;;;8.60;1.67;;;;;;;;;;5013344;28;92519;-70
2022/05/26 12:06:29;;;;;;;5.63;1.27;;;;;;;;;;5013001;28;93738;-71
2022/05/26 12:09:01;;;;;;;5.20;1.42;;;;;;;;;;4994791;28;94903;-71
2022/05/26 12:11:46;;;;;;;10.63;2.03;;;;;;;;;;4993351;28;96046;-70
2022/05/26 12:14:19;;;;;;;16.55;2.63;;;;;;;;;;4998532;28;92565;-70
2022/05/26 12:16:45;;;;;;;11.60;1.70;;;;;;;;;;5015106;28;93147;-70
2022/05/26 12:19:12;;;;;;;10.15;1.73;;;;;;;;;;5017194;28;93501;-71
2022/05/26 12:21:41;;;;;;;9.32;1.55;;;;;;;;;;5014176;28;92506;-70
2022/05/26 12:24:26;;;;;;;6.85;1.13;;;;;;;;;;5016216;28;93626;-71
2022/05/26 12:26:54;;;;;;;3.45;1.13;;;;;;;;;;5017172;28;92635;-70
2022/05/26 12:29:39;;;;;;;9.15;1.63;;;;;;;;;;4996787;28;92491;-70
2022/05/26 12:32:07;;;;;;;7.50;1.83;;;;;;;;;;5014364;28;93542;-70
2022/05/26 12:34:40;;;;;;;7.10;2.20;;;;;;;;;;5014650;28;96157;-70
2022/05/26 12:37:15;;;;;;;6.75;1.35;;;;;;;;;;5016251;28;95605;-70
2022/05/26 12:39:57;;;;;;;5.88;1.23;;;;;;;;;;4999180;28;93303;-70
2022/05/26 12:42:46;;;;;;;21.10;2.30;;;;;;;;;;5000979;28;92441;-70
2022/05/26 12:45:22;;;;;;;8.23;1.60;;;;;;;;;;5002940;28;93971;-70
2022/05/26 12:48:20;;;;;;;8.82;1.60;;;;;;;;;;5016125;28;93424;-70
2022/05/26 12:50:47;;;;;;;4.43;1.55;;;;;;;;;;4958120;28;92546;-70
2022/05/26 12:53:16;;;;;;;4.45;1.45;;;;;;;;;;4975513;28;93841;-71
2022/05/26 12:55:48;;;;;;;8.07;1.40;;;;;;;;;;4968926;28;93476;-71
2022/05/26 12:58:14;;;;;;;7.20;1.60;;;;;;;;;;4976492;28;92502;-71
2022/05/26 13:00:44;;;;;;;30.92;3.30;;;;;;;;;;4967265;28;95824;-70
2022/05/26 13:03:11;;;;;;;;;;;;;;;;;;4959560;28;92628;-70
2022/05/26 13:05:39;;;;;;;8.07;1.80;;;;;;;;;;4974069;28;123306;-71
2022/05/26 13:08:10;;;;;;;12.70;1.52;;;;;;;;;;4972940;28;93528;-70
2022/05/26 13:10:38;;;;;;;8.65;1.23;;;;;;;;;;4969678;28;92552;-70
2022/05/26 13:13:06;;;;;;;5.25;1.38;;;;;;;;;;4972322;28;93189;-70
2022/05/26 13:15:33;;;;;;;5.55;1.60;;;;;;;;;;4973190;28;93748;-70
2022/05/26 13:17:59;;;;;;;4.43;1.17;;;;;;;;;;4974840;28;91771;-71
2022/05/26 13:20:34;;;;;;;8.35;2.03;;;;;;;;;;4976982;28;92477;-70
2022/05/26 13:23:29;;;;;;;8.18;1.63;;;;;;;;;;4973676;28;92691;-71
2022/05/26 13:25:56;;;;;;;7.15;1.88;;;;;;;;;;4963760;28;95059;-71
2022/05/26 13:28:27;;;;;;;17.88;2.72;;;;;;;;;;4993781;28;94320;-70
2022/05/26 13:34:01;;;;;;;8.85;2.00;;;;;;;;;;5013638;28;93468;-71
2022/05/26 13:36:32;;;;;;;7.10;1.70;;;;;;;;;;5011630;28;93845;-71
2022/05/26 13:39:15;;;;;;;13.65;2.15;;;;;;;;;;5003973;28;92514;-71
2022/05/26 13:41:43;;;;;;;6.72;1.48;;;;;;;;;;5005324;28;93330;-71
2022/05/26 13:44:13;;;;;;;22.13;2.78;;;;;;;;;;5025509;28;92676;-71
2022/05/26 13:46:43;;;;;;;8.75;1.80;;;;;;;;;;5010695;28;92923;-70
2022/05/26 13:49:32;;;;;;;8.27;1.60;;;;;;;;;;5014637;28;93963;-70
2022/05/26 13:52:13;;;;;;;6.75;1.55;;;;;;;;;;5013275;28;95798;-70
2022/05/26 13:54:47;;;;;;;12.80;2.25;;;;;;;;;;5013465;28;95692;-70
2022/05/26 13:57:22;;;;;;;9.50;1.90;;;;;;;;;;5015492;28;93853;-70
2022/05/26 13:59:51;;;;;;;8.05;1.65;;;;;;;;;;5015011;28;92450;-71
2022/05/26 14:02:28;;;;;;;9.13;1.73;;;;;;;;;;5014301;28;93086;-74
2022/05/26 14:04:57;;;;;;;8.38;1.50;;;;;;;;;;5017738;28;93356;-71
2022/05/26 14:07:37;;;;;;;11.65;1.75;;;;;;;;;;5003798;28;93193;-70
2022/05/26 14:10:03;;;;;;;5.87;1.53;;;;;;;;;;5006442;28;93531;-71
2022/05/26 14:12:30;;;;;;;10.38;1.40;;;;;;;;;;5013250;28;92556;-71
2022/05/26 14:14:56;;;;;;;4.45;1.20;;;;;;;;;;5014848;28;93208;-71
2022/05/26 14:17:33;;;;;;;3.58;1.10;;;;;;;;;;4995268;28;95894;-70
2022/05/26 14:20:05;;;;;;;4.88;1.42;;;;;;;;;;5007397;28;93156;-71
2022/05/26 14:22:33;;;;;;;9.32;1.10;;;;;;;;;;5011556;28;94293;-70
2022/05/26 14:24:59;;;;;;;3.53;1.00;;;;;;;;;;4997614;28;93250;-70
2022/05/26 14:27:30;;;;;;;5.78;1.10;;;;;;;;;;5011544;28;93966;-71
2022/05/26 14:29:56;;;;;;;;;;;;;;;;;;5005097;28;94497;-70
2022/05/26 14:32:24;;;;;;;7.32;0.88;;;;;;;;;;5002657;28;118768;-70
2022/05/26 14:34:52;;;;;;;6.90;1.20;;;;;;;;;;5006862;28;93025;-71
2022/05/26 14:37:19;;;;;;;6.05;1.35;;;;;;;;;;5025815;28;93677;-70
2022/05/26 14:39:47;;;;;;;6.85;1.25;;;;;;;;;;4997050;28;92843;-71
2022/05/26 14:42:15;;;;;;;5.18;1.63;;;;;;;;;;5009104;28;94950;-70
2022/05/26 14:44:45;;;;;;;3.83;1.20;;;;;;;;;;5015165;28;93836;-70
2022/05/26 14:47:12;;;;;;;5.97;1.60;;;;;;;;;;4996339;28;92466;-70
2022/05/26 14:49:39;;;;;;;6.78;1.38;;;;;;;;;;5017188;28;93633;-70
2022/05/26 14:52:06;;;;;;;7.53;1.40;;;;;;;;;;5013723;28;92446;-70
2022/05/26 14:57:19;;;;;;;6.43;1.30;;;;;;;;;;4995817;28;93342;-71
2022/05/26 14:59:45;;;;;;;7.30;1.50;;;;;;;;;;5010374;28;91785;-70
2022/05/26 15:02:12;;;;;;;5.97;1.58;;;;;;;;;;5015011;28;92586;-71
2022/05/26 15:04:38;;;;;;;8.75;1.60;;;;;;;;;;5015528;28;93849;-71
2022/05/26 15:07:05;;;;;;;5.13;1.17;;;;;;;;;;5011459;28;96155;-72
2022/05/26 15:09:32;;;;;;;7.70;1.90;;;;;;;;;;5012219;28;95910;-71
2022/05/26 15:12:00;;;;;;;4.97;1.15;;;;;;;;;;5017273;28;93366;-71
2022/05/26 15:14:27;;;;;;;3.60;1.08;;;;;;;;;;5000998;28;93140;-71
2022/05/26 15:16:56;;;;;;;6.20;1.42;;;;;;;;;;5012073;28;93295;-71
2022/05/26 15:19:24;;;;;;;6.75;1.30;;;;;;;;;;4996447;28;92477;-71
2022/05/26 15:21:53;;;;;;;5.43;1.70;;;;;;;;;;5014741;28;93195;-71
2022/05/26 15:24:19;;;;;;;8.48;1.90;;;;;;;;;;5012854;28;94939;-71
2022/05/26 15:26:46;;;;;;;11.30;2.17;;;;;;;;;;4995371;28;92649;-71
2022/05/26 15:29:13;;;;;;;13.07;1.70;;;;;;;;;;5002983;28;93609;-71
2022/05/26 15:31:39;;;;;;;10.15;2.08;;;;;;;;;;5011105;28;95830;-71
2022/05/26 15:34:06;;;;;;;11.35;1.95;;;;;;;;;;5017169;28;92868;-71
2022/05/26 15:36:32;;;;;;;14.18;2.10;;;;;;;;;;5014672;28;94330;-71
2022/05/26 15:38:58;;;;;;;5.45;1.90;;;;;;;;;;5014525;28;92430;-71